EW8591 Weather Reports


time (UTC)temp
C
wind
direction
speed
KPH
gust
KPH
rain 1hr
cm
rain 24hr
cm
rain mn
cm
humidity
%
barometer
mb
20190424214844 9 112 0.0 0.0 0.00 1.14 1.14 78 1007.0
20190424214342 9 112 0.0 6.4 0.00 1.14 1.14 79 1007.0
20190424213844 9 112 3.2 9.7 0.00 1.14 1.14 79 1007.0
20190424213344 9 158 0.0 9.7 0.00 1.14 1.14 80 1007.0
20190424212843 9 158 3.2 8.0 0.00 1.14 1.14 80 1007.0
20190424212344 9 45 4.8 8.0 0.00 1.14 1.14 80 1007.0
20190424211844 9 68 1.6 8.0 0.00 1.14 1.14 79 1007.0
20190424211343 10 90 0.0 6.4 0.00 1.14 1.14 78 1007.0
20190424210844 10 112 0.0 0.0 0.00 1.14 1.14 78 1007.0
20190424210344 10 68 0.0 4.8 0.00 1.14 1.14 79 1007.0
20190424205844 10 68 1.6 4.8 0.00 1.14 1.14 79 1007.0
20190424205344 10 90 0.0 6.4 0.00 1.14 1.14 80 1007.0
20190424204844 9 68 1.6 6.4 0.00 1.14 1.14 80 1007.0
20190424204354 9 225 0.0 8.0 0.00 1.14 1.14 80 1007.0
20190424203844 9 90 8.0 8.0 0.00 1.14 1.14 80 1007.0
20190424203349 9 68 3.2 6.4 0.10 1.14 1.14 81 1007.0
20190424202909 9 135 4.8 6.4 0.10 1.14 1.14 81 1007.0
20190424202353 9 112 1.6 9.7 0.10 1.14 1.14 81 1007.0
20190424202325 10 22 4.8 14.5 0.10 1.14 1.14 79 1007.0
20190424202254 10 68 6.4 6.4 0.10 1.14 1.14 80 1007.0
20190424202245 9 68 9.7 14.5 0.10 1.14 1.14 79 1007.0
20190424202209 10 135 0.0 9.7 0.10 1.14 1.14 80 1007.0
20190424201441 10 22 4.8 14.5 0.10 1.14 1.14 79 1007.0
20190424201431 9 68 8.0 9.7 0.10 1.14 1.14 81 1007.0
20190424200311 10 112 3.2 4.8 0.00 1.04 1.04 80 1007.0
20190424200303 10 68 4.8 9.7 0.10 1.14 1.14 78 1007.0
20190424200007 10 68 14.5 14.5 0.10 1.14 1.14 80 1007.0
20190424195906 10 45 12.9 12.9 0.10 1.14 1.14 79 1007.0
20190424195645 10 68 4.8 9.7 0.10 1.14 1.14 79 1007.0
20190424193131 10 135 0.0 4.8 0.10 1.04 1.04 79 1007.0
20190424192344 10 112 1.6 4.8 0.10 1.04 1.04 78 1007.0
20190424191844 10 112 3.2 4.8 0.20 1.04 1.04 77 1007.0
20190424191313 10 68 3.2 4.8 0.20 1.04 1.04 77 1007.0
20190424190805 10 112 0.0 6.4 0.30 1.04 1.04 76
20190424190247 10 112 0.0 6.4 0.30 1.04 1.04 76 1007.0
20190424185744 10 68 4.8 6.4 0.30 1.04 1.04 77 1007.0
20190424185244 10 68 3.2 11.3 0.30 1.04 1.04 78 1007.0
20190424184744 10 68 1.6 11.3 0.41 1.04 1.04 79 1007.0
20190424184242 10 68 6.4 9.7 0.41 1.04 1.04 79 1007.0
20190424183744 10 112 0.0 6.4 0.41 1.04 1.04 81 1007.0
20190424183255 10 90 4.8 6.4 0.51 1.04 1.04 80 1007.0
20190424182742 10 158 6.4 11.3 0.41 0.94 0.94 77 1007.0
20190424182244 10 112 6.4 11.3 0.41 0.94 0.94 75 1007.0
20190424181744 10 112 4.8 20.9 0.43 0.84 0.84 76 1007.0
20190424181244 10 135 4.8 20.9 0.43 0.84 0.84 75 1007.0
20190424180816 10 68 3.2 8.0 0.33 0.74 0.74 75 1007.0
20190424180555 11 158 6.4 8.0 0.33 0.74 0.74 74 1007.0
20190424180325 11 158 6.4 8.0 0.33 0.74 0.74 74 1007.0
20190424180027 10 68 6.4 9.7 0.43 0.74 0.74 74 1007.0
20190424175540 11 135 0.0 9.7 0.43 0.74 0.74 74 1007.0
20190424175321 11 135 0.0 9.7 0.43 0.74 0.74 74 1007.0
20190424174914 11 158 4.8 6.4 0.43 0.64 0.64 75 1007.0
20190424174752 11 112 1.6 6.4 0.33 0.64 0.64 73 1007.0
20190424173749 11 158 3.2 4.8 0.43 0.64 0.64 75 1007.0
20190424173244 11 112 1.6 4.8 0.33 0.53 0.53 76 1007.0
20190424172742 11 158 0.0 6.4 0.43 0.53 0.53 75 1007.0
20190424172245 11 158 0.0 6.4 0.43 0.53 0.53 75 1007.0
20190424171744 11 158 6.4 6.4 0.30 0.41 0.41 75 1007.0
20190424171244 11 68 4.8 6.4 0.30 0.41 0.41 74 1007.0
20190424170744 11 158 4.8 6.4 0.41 0.41 0.41 74 1007.0
20190424170249 11 112 1.6 9.7 0.41 0.41 0.41 74 1007.0
20190424165742 11 158 4.8 11.3 0.30 0.30 0.30 73 1007.0
20190424165249 11 68 1.6 11.3 0.30 0.30 0.30 73 1005.9
20190424164749 12 68 6.4 9.7 0.30 0.30 0.30 74 1005.9
20190424164233 12 135 4.8 9.7 0.20 0.20 0.20 72 1005.9
20190424163722 12 158 9.7 12.9 0.20 0.20 0.20 74 1005.9
20190424163208 12 135 4.8 14.5 0.20 0.20 0.20 74 1005.9
20190424162931 12 112 6.4 14.5 0.10 0.10 0.10 73 1005.9
20190424162238 12 90 9.7 12.9 0.10 0.10 0.10 71 1004.9
20190424161700 13 315 9.7 20.9 0.10 0.10 0.10 70 1004.9
20190424161143 13 112 6.4 20.9 0.10 0.10 0.10 70 1004.9
20190424160655 13 158 11.3 14.5 0.00 0.00 0.00 69 1004.9
20190424160144 13 180 14.5 14.5 0.00 0.00 0.00 68 1004.9
20190424155643 13 158 6.4 30.6 0.00 0.00 0.00 68 1004.9
20190424155144 14 112 6.4 30.6 0.00 0.00 0.00 67 1003.8
20190424154645 14 248 4.8 11.3 0.00 0.00 0.00 65 1003.8
20190424154142 14 112 4.8 11.3 0.00 0.00 0.00 66 1003.8
20190424153649 14 158 9.7 16.1 0.00 0.00 0.00 64 1002.8
20190424153145 15 202 6.4 16.1 0.00 0.00 0.00 62 1002.8
20190424152642 15 158 12.9 12.9 0.00 0.00 0.00 62 1002.8
20190424152143 15 202 9.7 12.9 0.00 0.00 0.00 58 1002.8
20190424151819 16 158 9.7 19.3 0.00 0.00 0.00 51 1002.8
20190424151204 17 112 16.1 29.0 0.00 0.00 0.00 45 1002.8
20190424151156 16 112 16.1 29.0 0.00 0.00 0.00 48 1002.8
20190424150706 17 112 16.1 29.0 0.00 0.00 0.00 45 1002.8
20190424150236 18 135 9.7 9.7 0.00 0.00 0.00 44 1002.8
20190424145928 18 112 3.2 9.7 0.00 0.00 0.00 44 1002.8
20190424145715 18 112 3.2 9.7 0.00 0.00 0.00 44 1002.8
20190424145227 18 135 6.4 8.0 0.00 0.00 0.00 44 1002.8
20190424144710 18 270 0.0 8.0 0.00 0.00 0.00 43 1002.8
20190424144326 18 158 8.0 14.5 0.00 0.00 0.00 43 1002.8
20190424143649 18 135 6.4 14.5 0.00 0.00 0.00 43 1002.8
20190424143144 18 135 8.0 9.7 0.00 0.00 0.00 43 1002.8
20190424142642 19 112 6.4 12.9 0.00 0.00 0.00 43 1002.8
20190424142222 19 112 9.7 12.9 0.00 0.00 0.00 43 1002.8
20190424141653 20 68 4.8 12.9 0.00 0.00 0.00 43 1002.8
20190424141216 20 180 6.4 9.7 0.00 0.00 0.00 43 1002.8
20190424140641 19 135 9.7 16.1 0.00 0.00 0.00 43 1002.8
20190424140156 19 158 9.7 16.1 0.00 0.00 0.00 43 1002.8
20190424135656 19 248 11.3 11.3 0.00 0.00 0.00 43 1002.8
20190424135148 19 158 6.4 11.3 0.00 0.00 0.00 44 1002.8
20190424134722 19 135 3.2 11.3 0.00 0.00 0.00 43 1002.8
20190424134142 20 158 4.8 6.4 0.00 0.00 0.00 43 1002.8
20190424133643 20 202 4.8 12.9 0.00 0.00 0.00 43 1002.8
20190424133143 20 158 4.8 12.9 0.00 0.00 0.00 42 1002.8
20190424132641 20 90 6.4 11.3 0.00 0.00 0.00 42 1002.8
20190424132143 21 158 9.7 14.5 0.00 0.00 0.00 42 1002.8
20190424131625 21 202 0.0 14.5 0.00 0.00 0.00 41 1002.8
20190424131123 21 135 9.7 9.7 0.00 0.00 0.00 41 1002.8
20190424130556 21 68 4.8 9.7 0.00 0.00 0.00 42
20190424130049 20 68 9.7 9.7 0.00 0.00 0.00 42 1002.8
20190424125541 21 158 9.7 9.7 0.00 0.00 0.00 41 1002.8
20190424125043 21 248 4.8 9.7 0.00 0.00 0.00 40 1002.8
20190424124543 22 22 4.8 9.7 0.00 0.00 0.00 40 1002.8
20190424124042 21 112 9.7 9.7 0.00 0.00 0.00 41 1002.8
20190424123543 21 158 6.4 9.7 0.00 0.00 0.00 40 1002.8
20190424123042 21 158 8.0 14.5 0.00 0.00 0.00 40 1002.8
20190424122542 21 202 8.0 14.5 0.00 0.00 0.00 40 1002.8
20190424122043 21 158 9.7 12.9 0.00 0.00 0.00 39 1002.8
20190424121543 21 112 9.7 14.5 0.00 0.00 0.00 40 1002.8
20190424121041 20 135 12.9 16.1 0.00 0.00 0.00 40 1002.8
20190424120530 20 135 14.5 24.1 0.00 0.00 0.00 40 1002.8
20190424120023 20 135 14.5 24.1 0.00 0.00 0.00 39 1002.8
20190424115444 21 45 6.4 16.1 0.00 0.00 0.00 41 1002.8
20190424114943 21 45 8.0 16.1 0.00 0.00 0.00 41 1002.8
20190424114429 20 68 6.4 16.1 0.00 0.00 0.00 41 1002.8
20190424113913 20 112 12.9 14.5 0.00 0.00 0.00 41 1002.8
20190424113413 20 45 8.0 14.5 0.00 0.00 0.00 42 1002.8
20190424112855 20 112 9.7 17.7 0.00 0.00 0.00 42 1002.8
20190424112414 20 90 16.1 17.7 0.00 0.00 0.00 41 1002.8
20190424111903 20 135 8.0 14.5 0.00 0.00 0.00 42 1002.8
20190424111400 20 180 9.7 17.7 0.00 0.00 0.00 43 1002.8
20190424110843 20 158 9.7 17.7 0.00 0.00 0.00 43 1002.8
20190424110344 20 135 9.7 9.7 0.00 0.00 0.00 43 1002.8
20190424105829 20 112 3.2 17.7 0.00 0.00 0.00 44 1002.8
20190424105334 19 135 4.8 9.7 0.00 0.00 0.00 44 1002.8
20190424104859 19 68 6.4 11.3 0.00 0.00 0.00 43 1002.8
20190424104257 19 112 9.7 14.5 0.00 0.00 0.00 44 1002.8
20190424103743 18 112 4.8 17.7 0.00 0.00 0.00 44 1002.8
20190424103243 18 112 1.6 17.7 0.00 0.00 0.00 44 1002.8
20190424103235 17 225 12.9 19.3 0.00 0.00 0.00 48 1002.8
20190424102927 17 225 9.7 12.9 0.00 0.00 0.00 49 1002.8
20190424102903 18 180 14.5 14.5 0.00 0.00 0.00 47 1002.8
20190424102830 18 112 6.4 14.5 0.00 0.00 0.00 45 1002.8
20190424102710 17 248 9.7 16.1 0.00 0.00 0.00 49 1002.8
20190424102534 17 225 12.9 19.3 0.00 0.00 0.00 48 1002.8
20190424102419 17 225 11.3 19.3 0.00 0.00 0.00 49 1002.8
20190424102318 17 225 9.7 12.9 0.00 0.00 0.00 49 1002.8
20190424102255 18 225 4.8 16.1 0.00 0.00 0.00 45 1002.8
20190424102222 18 270 3.2 16.1 0.00 0.00 0.00 46 1002.8
20190424101956 17 248 9.7 12.9 0.00 0.00 0.00 48 1002.8
20190424101916 17 248 9.7 16.1 0.00 0.00 0.00 49 1002.8
20190424101325 18 202 6.4 14.5 0.00 0.00 0.00 46 1002.8
20190424093644 17 248 9.7 12.9 0.00 0.00 0.00 50 1002.8
20190424093117 17 202 6.4 12.9 0.00 0.00 0.00 50 1002.8
20190424092843 17 270 9.7 12.9 0.00 0.00 0.00 52 1002.8
20190424092337 17 225 8.0 12.9 0.00 0.00 0.00 52 1002.8
20190424091757 16 292 8.0 19.3 0.00 0.00 0.00 53 1002.8
20190424091632 16 202 4.8 11.3 0.00 0.00 0.00 53 1002.8
20190424090536 16 202 12.9 19.3 0.00 0.00 0.00 52 1002.8
20190424085959 16 202 4.8 14.5 0.00 0.00 0.00 54 1002.8
20190424085444 16 292 6.4 19.3 0.00 0.00 0.00 54 1002.8
20190424084941 16 270 6.4 19.3 0.00 0.00 0.00 55 1002.8
20190424084433 16 270 12.9 17.7 0.00 0.00 0.00 55 1002.8
20190424083930 16 292 6.4 19.3 0.00 0.00 0.00 55 1002.8
20190424083403 16 292 19.3 19.3 0.00 0.00 0.00 56 1002.8
20190424082845 16 338 4.8 16.1 0.00 0.00 0.00 57 1002.8
20190424082308 15 292 3.2 9.7 0.00 0.00 0.00 58 1002.8
20190424081744 15 292 4.8 12.9 0.00 0.00 0.00 56 1002.8
20190424081550 15 270 12.9 14.5 0.00 0.00 0.00 58 1002.8
20190424081508 15 202 9.7 14.5 0.00 0.00 0.00 58 1002.8
20190424080930 15 248 12.9 12.9 0.00 0.00 0.00 60 1002.8
20190424075802 15 315 6.4 9.7 0.00 0.00 0.00 61 1002.8
20190424075353 15 158 6.4 9.7 0.00 0.00 0.00 61 1002.8
20190424074715 15 292 4.8 12.9 0.00 0.00 0.00 63 1002.8
20190424074546 14 202 4.8 14.5 0.00 0.00 0.00 64 1002.8
20190424074533 13 248 3.2 9.7 0.00 0.00 0.00 68 1002.8
20190424074527 13 315 4.8 6.4 0.00 0.00 0.00 70
20190424074519 13 202 0.0 3.2 0.00 0.00 0.00 73 1002.8
20190424074513 12 225 1.6 3.2 0.00 0.00 0.00 73 1002.8
20190424074506 12 292 3.2 3.2 0.00 0.00 0.00 73 1002.8
20190424074500 12 180 0.0 1.6 0.00 0.00 0.00 73 1002.8
20190424074449 14 225 3.2 12.9 0.00 0.00 0.00 64 1002.8
20190424074413 12 315 0.0 1.6 0.00 0.00 0.00 73 1001.7
20190424074409 14 315 6.4 8.0 0.00 0.00 0.00 64 1002.8
20190424074403 14 292 3.2 9.7 0.00 0.00 0.00 65 1002.8
20190424074351 14 158 4.8 14.5 0.00 0.00 0.00 65 1002.8
20190424073844 14 202 4.8 14.5 0.00 0.00 0.00 64 1002.8
20190424073633 14 292 4.8 12.9 0.00 0.00 0.00 68 1002.8
20190424070157 13 248 6.4 6.4 0.00 0.00 0.00 72 1002.8
20190424064722 12 202 0.0 1.6 0.00 0.00 0.00 73 1001.7
20190424062536 11 0 0.0 0.0 0.00 0.00 0.00 72 1001.7
20190424062041 11 0 0.0 0.0 0.00 0.00 0.00 72 1001.7
20190424061513 11 338 0.0 0.0 0.00 0.00 0.00 72 1001.7
20190424060935 11 315 0.0 4.8 0.00 0.00 0.00 71 1001.7
20190424060356 11 292 0.0 4.8 0.00 0.00 0.00 71 1001.7
20190424055904 11 0 3.2 3.2 0.00 0.00 0.00 71 1001.7
20190424055349 11 338 0.0 0.0 0.00 0.00 0.00 71 1001.7
20190424054906 11 202 0.0 0.0 0.00 0.00 0.00 70 1001.7
20190424054346 10 315 0.0 0.0 0.00 0.00 0.00 69 1001.7
20190424053837 10 315 0.0 3.2 0.00 0.00 0.00 70 1001.7
20190424053326 10 315 0.0 3.2 0.00 0.00 0.00 69 1001.7
20190424052802 11 292 3.2 3.2 0.00 0.00 0.00 68 1001.7
20190424052305 10 292 1.6 1.6 0.00 0.00 0.00 67 1001.7
20190424051713 10 270 0.0 0.0 0.00 0.00 0.00 67 1001.7
20190424051212 10 248 0.0 0.0 0.00 0.00 0.00 66 1001.7
20190424050927 10 22 0.0 0.0 0.00 0.00 0.00 66 1001.7
20190424050719 10 22 0.0 0.0 0.00 0.00 0.00 66 1001.7
20190424050146 10 22 0.0 0.0 0.00 0.00 0.00 66 1001.7
20190424045657 10 22 0.0 0.0 0.00 0.00 0.00 66 1001.7
20190424045157 10 22 0.0 0.0 0.00 0.00 0.00 66 1001.7
20190424044709 10 22 0.0 0.0 0.00 0.00 0.00 66 1001.7
20190424044153 10 22 0.0 0.0 0.00 0.00 0.00 66 1001.7
20190424043645 10 22 0.0 0.0 0.00 0.00 0.00 66 1000.7
20190424043113 10 22 0.0 0.0 0.00 0.00 0.00 66 1000.7
20190424042621 10 22 0.0 0.0 0.00 0.00 0.00 66 1000.7
20190424042050 10 22 0.0 0.0 0.00 0.00 0.00 65 1000.7
20190424041549 10 22 0.0 0.0 0.00 0.00 0.00 65 1000.7
20190424041045 10 22 0.0 0.0 0.00 0.00 0.00 65 1000.7
20190424040545 10 22 0.0 0.0 0.00 0.00 0.00 65 1000.7
20190424040045 10 22 0.0 0.0 0.00 0.00 0.00 65 1000.7
20190424035543 10 22 0.0 0.0 0.00 0.00 0.00 65 1000.7
20190424035045 10 22 0.0 0.0 0.00 0.00 0.00 65 1000.7
20190424034551 10 22 0.0 0.0 0.00 0.00 0.00 64 1000.7
20190424034044 10 45 0.0 0.0 0.00 0.00 0.00 64 1000.7
20190424033626 10 45 0.0 0.0 0.00 0.00 0.00 64 1000.7
20190424033050 10 45 0.0 0.0 0.00 0.00 0.00 64 1000.7
20190424032543 10 45 0.0 0.0 0.00 0.00 0.00 64 1000.7
20190424032058 10 45 0.0 0.0 0.00 0.00 0.00 65 1000.7
20190424031554 10 45 0.0 0.0 0.00 0.00 0.00 64 1000.7
20190424031045 10 45 0.0 0.0 0.00 0.00 0.00 64 1000.7
20190424030613 11 45 0.0 0.0 0.00 0.00 0.00 64 1000.7
20190424030108 11 45 0.0 0.0 0.00 0.00 0.00 64 1000.7
20190424025543 11 45 0.0 0.0 0.00 0.00 0.00 64 1000.7
20190424025049 11 45 0.0 0.0 0.00 0.00 0.00 63 1000.7
20190424024546 11 22 0.0 0.0 0.00 0.00 0.00 63 1000.7
20190424024043 11 22 0.0 0.0 0.00 0.00 0.00 64 1000.7
20190424023555 11 22 0.0 0.0 0.00 0.00 0.00 63 1000.7
20190424023057 11 22 0.0 0.0 0.00 0.00 0.00 63 1000.7
20190424022558 11 22 0.0 0.0 0.00 0.00 0.00 63 1000.7
20190424022102 11 22 0.0 0.0 0.00 0.00 0.00 63 1000.7
20190424021610 11 22 0.0 0.0 0.00 0.00 0.00 63 1000.7
20190424021332 11 22 0.0 0.0 0.00 0.00 0.00 62 1000.7
20190424021107 11 22 0.0 0.0 0.00 0.00 0.00 62 1000.7
20190424021042 11 22 0.0 0.0 0.00 0.00 0.00 63 1000.7
20190424020837 11 22 0.0 0.0 0.00 0.00 0.00 62 1000.7
20190424020600 11 22 0.0 0.0 0.00 0.00 0.00 62 1000.7
20190424020116 11 22 0.0 0.0 0.00 0.00 0.00 62 1000.7
20190424015546 11 22 0.0 0.0 0.00 0.00 0.00 62 1000.7
20190424015102 11 22 0.0 0.0 0.00 0.00 0.00 62 1000.7
20190424014609 11 22 0.0 0.0 0.00 0.00 0.00 62 1000.7
20190424014050 11 22 0.0 0.0 0.00 0.00 0.00 62 1000.7
20190424013555 11 22 0.0 0.0 0.00 0.00 0.00 62 999.7
20190424013231 11 22 0.0 0.0 0.00 0.00 0.00 62 999.7
20190424013029 11 22 0.0 0.0 0.00 0.00 0.00 62 999.7
20190424013011 11 22 0.0 0.0 0.00 0.00 0.00 62 999.7
20190424012516 11 22 0.0 0.0 0.00 0.00 0.00 62 999.7
20190424012005 11 22 0.0 0.0 0.00 0.00 0.00 61 999.7
20190424011506 11 22 0.0 0.0 0.00 0.00 0.00 61 999.7
20190424010947 11 22 0.0 0.0 0.00 0.00 0.00 61
20190424010358 11 22 0.0 0.0 0.00 0.00 0.00 61 999.7
20190424005908 11 22 0.0 0.0 0.00 0.00 0.00 61 999.7
20190424005416 11 22 0.0 0.0 0.00 0.00 0.00 60 999.7
20190424004907 11 22 0.0 0.0 0.00 0.00 0.00 60 999.7
20190424004356 11 22 0.0 0.0 0.00 0.00 0.00 60 999.7
20190424003916 11 22 0.0 0.0 0.00 0.00 0.00 60 999.7
20190424003405 11 22 0.0 0.0 0.00 0.00 0.00 60 999.7
20190424002922 11 22 0.0 0.0 0.00 0.00 0.00 60 999.7
20190424002352 11 22 0.0 0.0 0.00 0.00 0.00 60 999.7
20190424001817 11 22 0.0 0.0 0.00 0.00 0.00 60 999.7
20190424001255 11 22 0.0 0.0 0.00 0.00 0.00 60 999.7
20190424000754 12 270 0.0 0.0 0.00 0.00 0.00 59
20190424000240 12 270 0.0 0.0 0.00 0.00 0.00 58 999.7
20190423235719 12 270 0.0 0.0 0.00 0.00 0.00 58 999.7
20190423235208 12 292 0.0 0.0 0.00 0.00 0.00 58 999.7
20190423234706 12 292 0.0 0.0 0.00 0.00 0.00 58 999.7
20190423234159 12 292 0.0 0.0 0.00 0.00 0.00 58 999.7
20190423233644 12 292 0.0 0.0 0.00 0.00 0.00 58 999.7
20190423233150 12 292 0.0 0.0 0.00 0.00 0.00 58 999.7
20190423232706 12 292 0.0 0.0 0.00 0.00 0.00 58 999.7
20190423232146 12 292 0.0 0.0 0.00 0.00 0.00 57 999.7
20190423231650 12 292 0.0 0.0 0.00 0.00 0.00 57 999.7
20190423231155 12 292 0.0 0.0 0.00 0.00 0.00 57 999.7
20190423230701 12 292 0.0 0.0 0.00 0.00 0.00 57
20190423230114 12 292 0.0 0.0 0.00 0.00 0.00 56 999.7
20190423225600 13 292 0.0 0.0 0.00 0.00 0.00 56 999.7
20190423225043 13 292 0.0 0.0 0.00 0.00 0.00 56 999.7
20190423224610 13 292 0.0 1.6 0.00 0.00 0.00 55 999.7
20190423224047 13 292 1.6 1.6 0.00 0.00 0.00 55 999.7
20190423223609 13 270 0.0 0.0 0.00 0.00 0.00 54 999.7
20190423223057 13 292 0.0 0.0 0.00 0.00 0.00 54 999.7
20190423222559 13 292 0.0 0.0 0.00 0.00 0.00 54 999.7
20190423222046 13 292 0.0 0.0 0.00 0.00 0.00 53 999.7
20190423221600 13 292 0.0 0.0 0.00 0.00 0.00 53 999.7
20190423221043 13 292 0.0 0.0 0.00 0.00 0.00 53 999.7
20190423220617 13 292 0.0 0.0 0.00 0.00 0.00 52 999.7
20190423220050 14 248 0.0 0.0 0.00 0.00 0.00 53 999.7
20190423215558 14 248 0.0 0.0 0.00 0.00 0.00 52 999.7
20190423215050 14 292 0.0 0.0 0.00 0.00 0.00 52 999.7